sensor_id;sensor_type;location;lat;lon;timestamp;temperature;humidity
51719;DHT22;37795;53.236;5.704;2023-03-23T00:00:00;9.50;90.50
51719;DHT22;37795;53.236;5.704;2023-03-23T00:02:27;9.50;90.50
51719;DHT22;37795;53.236;5.704;2023-03-23T00:04:53;9.40;90.50
51719;DHT22;37795;53.236;5.704;2023-03-23T00:07:23;9.40;90.40
51719;DHT22;37795;53.236;5.704;2023-03-23T00:09:53;9.50;90.50
51719;DHT22;37795;53.236;5.704;2023-03-23T00:12:26;9.50;90.50
51719;DHT22;37795;53.236;5.704;2023-03-23T00:15:04;9.50;90.50
51719;DHT22;37795;53.236;5.704;2023-03-23T00:17:30;9.60;90.60
51719;DHT22;37795;53.236;5.704;2023-03-23T00:19:59;9.60;90.50
51719;DHT22;37795;53.236;5.704;2023-03-23T00:22:27;9.60;90.50
51719;DHT22;37795;53.236;5.704;2023-03-23T00:24:54;9.60;90.40
51719;DHT22;37795;53.236;5.704;2023-03-23T00:27:20;9.70;90.40
51719;DHT22;37795;53.236;5.704;2023-03-23T00:29:49;9.70;90.50
51719;DHT22;37795;53.236;5.704;2023-03-23T00:32:19;9.70;90.60
51719;DHT22;37795;53.236;5.704;2023-03-23T00:34:46;9.70;90.60
51719;DHT22;37795;53.236;5.704;2023-03-23T00:37:14;9.80;90.60
51719;DHT22;37795;53.236;5.704;2023-03-23T00:39:42;9.70;90.70
51719;DHT22;37795;53.236;5.704;2023-03-23T00:42:11;9.80;90.60
51719;DHT22;37795;53.236;5.704;2023-03-23T00:44:37;9.70;90.60
51719;DHT22;37795;53.236;5.704;2023-03-23T00:47:05;9.70;90.70
51719;DHT22;37795;53.236;5.704;2023-03-23T00:49:33;9.70;90.70
51719;DHT22;37795;53.236;5.704;2023-03-23T00:52:00;9.70;90.80
51719;DHT22;37795;53.236;5.704;2023-03-23T00:54:27;9.70;90.80
51719;DHT22;37795;53.236;5.704;2023-03-23T00:56:53;9.70;90.70
51719;DHT22;37795;53.236;5.704;2023-03-23T00:59:21;9.60;90.80
51719;DHT22;37795;53.236;5.704;2023-03-23T01:01:47;9.70;90.70
51719;DHT22;37795;53.236;5.704;2023-03-23T01:04:14;9.60;90.70
51719;DHT22;37795;53.236;5.704;2023-03-23T01:06:42;9.60;90.60
51719;DHT22;37795;53.236;5.704;2023-03-23T01:09:11;9.60;90.60
51719;DHT22;37795;53.236;5.704;2023-03-23T01:11:40;9.60;90.60
51719;DHT22;37795;53.236;5.704;2023-03-23T01:14:07;9.60;90.50
51719;DHT22;37795;53.236;5.704;2023-03-23T01:16:32;9.60;90.30
51719;DHT22;37795;53.236;5.704;2023-03-23T01:18:58;9.60;90.30
51719;DHT22;37795;53.236;5.704;2023-03-23T01:21:24;9.60;90.20
51719;DHT22;37795;53.236;5.704;2023-03-23T01:23:50;9.60;90.00
51719;DHT22;37795;53.236;5.704;2023-03-23T01:26:19;9.70;90.00
51719;DHT22;37795;53.236;5.704;2023-03-23T01:28:45;9.70;89.90
51719;DHT22;37795;53.236;5.704;2023-03-23T01:31:15;9.70;89.90
51719;DHT22;37795;53.236;5.704;2023-03-23T01:33:43;9.80;90.00
51719;DHT22;37795;53.236;5.704;2023-03-23T01:36:12;9.80;89.90
51719;DHT22;37795;53.236;5.704;2023-03-23T01:38:39;9.80;89.80
51719;DHT22;37795;53.236;5.704;2023-03-23T01:41:05;9.80;89.70
51719;DHT22;37795;53.236;5.704;2023-03-23T01:43:31;9.80;89.70
51719;DHT22;37795;53.236;5.704;2023-03-23T01:45:57;9.90;89.50
51719;DHT22;37795;53.236;5.704;2023-03-23T01:48:29;9.90;89.40
51719;DHT22;37795;53.236;5.704;2023-03-23T01:51:02;9.90;89.20
51719;DHT22;37795;53.236;5.704;2023-03-23T01:53:31;10.00;88.90
51719;DHT22;37795;53.236;5.704;2023-03-23T01:55:59;10.00;88.80
51719;DHT22;37795;53.236;5.704;2023-03-23T01:58:29;10.00;88.40
51719;DHT22;37795;53.236;5.704;2023-03-23T02:00:57;10.00;88.30
51719;DHT22;37795;53.236;5.704;2023-03-23T02:03:27;10.00;88.20
51719;DHT22;37795;53.236;5.704;2023-03-23T02:05:55;10.00;87.80
51719;DHT22;37795;53.236;5.704;2023-03-23T02:08:24;10.10;87.60
51719;DHT22;37795;53.236;5.704;2023-03-23T02:10:52;10.10;87.40
51719;DHT22;37795;53.236;5.704;2023-03-23T02:13:18;10.10;87.30
51719;DHT22;37795;53.236;5.704;2023-03-23T02:16:11;10.10;87.30
51719;DHT22;37795;53.236;5.704;2023-03-23T02:26:56;10.10;86.80
51719;DHT22;37795;53.236;5.704;2023-03-23T02:29:55;10.10;86.80
51719;DHT22;37795;53.236;5.704;2023-03-23T02:35:08;10.10;86.60
51719;DHT22;37795;53.236;5.704;2023-03-23T02:37:36;10.10;86.60
51719;DHT22;37795;53.236;5.704;2023-03-23T02:40:12;10.10;86.40
51719;DHT22;37795;53.236;5.704;2023-03-23T02:42:42;10.10;86.30
51719;DHT22;37795;53.236;5.704;2023-03-23T02:45:10;10.10;86.30
51719;DHT22;37795;53.236;5.704;2023-03-23T02:47:38;10.10;86.10
51719;DHT22;37795;53.236;5.704;2023-03-23T02:50:07;10.10;86.00
51719;DHT22;37795;53.236;5.704;2023-03-23T02:52:35;10.10;86.10
51719;DHT22;37795;53.236;5.704;2023-03-23T02:55:02;10.10;85.90
51719;DHT22;37795;53.236;5.704;2023-03-23T02:57:28;10.10;85.80
51719;DHT22;37795;53.236;5.704;2023-03-23T02:59:54;10.10;85.80
51719;DHT22;37795;53.236;5.704;2023-03-23T03:02:26;10.10;85.40
51719;DHT22;37795;53.236;5.704;2023-03-23T03:16:07;10.10;85.30
51719;DHT22;37795;53.236;5.704;2023-03-23T03:21:23;10.10;85.50
51719;DHT22;37795;53.236;5.704;2023-03-23T03:23:55;10.00;86.00
51719;DHT22;37795;53.236;5.704;2023-03-23T03:26:22;10.00;86.70
51719;DHT22;37795;53.236;5.704;2023-03-23T03:28:52;9.90;86.80
51719;DHT22;37795;53.236;5.704;2023-03-23T03:31:19;9.90;86.80
51719;DHT22;37795;53.236;5.704;2023-03-23T03:33:45;9.80;87.00
51719;DHT22;37795;53.236;5.704;2023-03-23T03:36:21;9.80;86.80
51719;DHT22;37795;53.236;5.704;2023-03-23T03:38:50;9.80;86.90
51719;DHT22;37795;53.236;5.704;2023-03-23T03:41:17;9.70;86.90
51719;DHT22;37795;53.236;5.704;2023-03-23T03:43:43;9.60;86.60
51719;DHT22;37795;53.236;5.704;2023-03-23T03:46:08;9.70;86.00
51719;DHT22;37795;53.236;5.704;2023-03-23T03:48:34;9.70;85.80
51719;DHT22;37795;53.236;5.704;2023-03-23T03:51:00;9.70;85.50
51719;DHT22;37795;53.236;5.704;2023-03-23T03:53:27;9.70;85.50
51719;DHT22;37795;53.236;5.704;2023-03-23T03:55:53;9.70;85.50
51719;DHT22;37795;53.236;5.704;2023-03-23T03:58:22;9.70;85.50
51719;DHT22;37795;53.236;5.704;2023-03-23T04:00:48;9.80;85.60
51719;DHT22;37795;53.236;5.704;2023-03-23T04:03:15;9.80;85.20
51719;DHT22;37795;53.236;5.704;2023-03-23T04:05:42;9.80;84.80
51719;DHT22;37795;53.236;5.704;2023-03-23T04:08:07;9.80;84.50
51719;DHT22;37795;53.236;5.704;2023-03-23T04:10:33;9.90;83.90
51719;DHT22;37795;53.236;5.704;2023-03-23T04:12:59;9.90;84.00
51719;DHT22;37795;53.236;5.704;2023-03-23T04:15:25;10.00;83.50
51719;DHT22;37795;53.236;5.704;2023-03-23T04:17:51;10.00;83.30
51719;DHT22;37795;53.236;5.704;2023-03-23T04:20:17;10.00;83.30
51719;DHT22;37795;53.236;5.704;2023-03-23T04:22:45;10.00;83.30
51719;DHT22;37795;53.236;5.704;2023-03-23T04:25:15;10.00;83.50
51719;DHT22;37795;53.236;5.704;2023-03-23T04:27:43;10.00;83.50
51719;DHT22;37795;53.236;5.704;2023-03-23T04:30:12;10.00;83.10
51719;DHT22;37795;53.236;5.704;2023-03-23T04:32:39;10.00;82.80
51719;DHT22;37795;53.236;5.704;2023-03-23T04:35:09;10.00;82.70
51719;DHT22;37795;53.236;5.704;2023-03-23T04:37:36;9.90;82.60
51719;DHT22;37795;53.236;5.704;2023-03-23T04:40:03;9.90;82.40
51719;DHT22;37795;53.236;5.704;2023-03-23T04:42:37;9.90;82.50
51719;DHT22;37795;53.236;5.704;2023-03-23T04:45:05;9.90;82.50
51719;DHT22;37795;53.236;5.704;2023-03-23T04:47:33;9.80;82.80
51719;DHT22;37795;53.236;5.704;2023-03-23T04:49:59;9.80;82.60
51719;DHT22;37795;53.236;5.704;2023-03-23T04:52:26;9.80;82.60
51719;DHT22;37795;53.236;5.704;2023-03-23T04:54:56;9.80;82.30
51719;DHT22;37795;53.236;5.704;2023-03-23T04:57:23;9.80;81.90
51719;DHT22;37795;53.236;5.704;2023-03-23T04:59:51;9.70;82.10
51719;DHT22;37795;53.236;5.704;2023-03-23T05:02:16;9.70;82.10
51719;DHT22;37795;53.236;5.704;2023-03-23T05:04:42;9.70;81.60
51719;DHT22;37795;53.236;5.704;2023-03-23T05:07:08;9.70;81.50
51719;DHT22;37795;53.236;5.704;2023-03-23T05:09:35;9.70;81.60
51719;DHT22;37795;53.236;5.704;2023-03-23T05:12:06;9.70;81.70
51719;DHT22;37795;53.236;5.704;2023-03-23T05:14:32;9.70;81.70
51719;DHT22;37795;53.236;5.704;2023-03-23T05:16:57;9.60;81.90
51719;DHT22;37795;53.236;5.704;2023-03-23T05:19:23;9.60;82.00
51719;DHT22;37795;53.236;5.704;2023-03-23T05:21:49;9.50;82.10
51719;DHT22;37795;53.236;5.704;2023-03-23T05:24:14;9.60;82.10
51719;DHT22;37795;53.236;5.704;2023-03-23T05:26:40;9.60;82.20
51719;DHT22;37795;53.236;5.704;2023-03-23T05:29:06;9.60;82.20
51719;DHT22;37795;53.236;5.704;2023-03-23T05:31:32;9.60;82.50
51719;DHT22;37795;53.236;5.704;2023-03-23T05:33:57;9.50;82.70
51719;DHT22;37795;53.236;5.704;2023-03-23T05:36:23;9.50;82.90
51719;DHT22;37795;53.236;5.704;2023-03-23T05:38:53;9.50;82.80
51719;DHT22;37795;53.236;5.704;2023-03-23T05:41:18;9.50;82.30
51719;DHT22;37795;53.236;5.704;2023-03-23T05:43:44;9.40;81.50
51719;DHT22;37795;53.236;5.704;2023-03-23T05:46:10;9.40;81.20
51719;DHT22;37795;53.236;5.704;2023-03-23T05:48:35;9.40;81.30
51719;DHT22;37795;53.236;5.704;2023-03-23T05:51:02;9.40;81.50
51719;DHT22;37795;53.236;5.704;2023-03-23T05:53:28;9.40;81.40
51719;DHT22;37795;53.236;5.704;2023-03-23T05:55:59;9.30;81.50
51719;DHT22;37795;53.236;5.704;2023-03-23T05:58:25;9.30;81.20
51719;DHT22;37795;53.236;5.704;2023-03-23T06:00:51;9.20;80.70
51719;DHT22;37795;53.236;5.704;2023-03-23T06:03:16;9.20;79.10
51719;DHT22;37795;53.236;5.704;2023-03-23T06:05:45;9.10;78.30
51719;DHT22;37795;53.236;5.704;2023-03-23T06:08:11;9.10;77.10
51719;DHT22;37795;53.236;5.704;2023-03-23T06:10:37;9.00;75.90
51719;DHT22;37795;53.236;5.704;2023-03-23T06:13:04;8.90;75.40
51719;DHT22;37795;53.236;5.704;2023-03-23T06:15:30;8.90;75.20
51719;DHT22;37795;53.236;5.704;2023-03-23T06:18:01;8.90;74.90
51719;DHT22;37795;53.236;5.704;2023-03-23T06:20:28;8.90;74.80
51719;DHT22;37795;53.236;5.704;2023-03-23T06:22:54;8.90;74.90
51719;DHT22;37795;53.236;5.704;2023-03-23T06:25:21;8.80;75.70
51719;DHT22;37795;53.236;5.704;2023-03-23T06:27:47;8.80;76.70
51719;DHT22;37795;53.236;5.704;2023-03-23T06:30:14;8.90;77.10
51719;DHT22;37795;53.236;5.704;2023-03-23T06:32:40;8.90;77.10
51719;DHT22;37795;53.236;5.704;2023-03-23T06:35:08;8.90;77.90
51719;DHT22;37795;53.236;5.704;2023-03-23T06:37:35;9.00;78.20
51719;DHT22;37795;53.236;5.704;2023-03-23T06:40:02;9.00;78.90
51719;DHT22;37795;53.236;5.704;2023-03-23T06:42:29;9.10;79.60
51719;DHT22;37795;53.236;5.704;2023-03-23T06:44:55;9.10;80.30
51719;DHT22;37795;53.236;5.704;2023-03-23T06:47:23;9.20;81.00
51719;DHT22;37795;53.236;5.704;2023-03-23T06:57:13;9.60;81.50
51719;DHT22;37795;53.236;5.704;2023-03-23T06:59:39;9.20;82.70
51719;DHT22;37795;53.236;5.704;2023-03-23T07:02:05;9.20;82.70
51719;DHT22;37795;53.236;5.704;2023-03-23T07:04:31;9.30;82.70
51719;DHT22;37795;53.236;5.704;2023-03-23T07:06:57;9.30;82.80
51719;DHT22;37795;53.236;5.704;2023-03-23T07:09:23;9.30;82.90
51719;DHT22;37795;53.236;5.704;2023-03-23T07:11:49;9.30;83.00
51719;DHT22;37795;53.236;5.704;2023-03-23T07:14:17;9.40;83.10
51719;DHT22;37795;53.236;5.704;2023-03-23T07:16:42;9.40;83.00
51719;DHT22;37795;53.236;5.704;2023-03-23T07:19:08;9.40;83.10
51719;DHT22;37795;53.236;5.704;2023-03-23T07:21:34;9.40;83.30
51719;DHT22;37795;53.236;5.704;2023-03-23T07:23:59;9.40;83.20
51719;DHT22;37795;53.236;5.704;2023-03-23T07:26:25;9.40;83.20
51719;DHT22;37795;53.236;5.704;2023-03-23T07:28:51;9.50;83.10
51719;DHT22;37795;53.236;5.704;2023-03-23T07:31:17;9.50;82.70
51719;DHT22;37795;53.236;5.704;2023-03-23T07:33:42;9.60;82.20
51719;DHT22;37795;53.236;5.704;2023-03-23T07:36:09;9.70;82.30
51719;DHT22;37795;53.236;5.704;2023-03-23T07:38:35;9.80;81.50
51719;DHT22;37795;53.236;5.704;2023-03-23T07:41:02;9.90;81.20
51719;DHT22;37795;53.236;5.704;2023-03-23T07:43:28;9.90;80.90
51719;DHT22;37795;53.236;5.704;2023-03-23T07:45:53;10.00;80.50
51719;DHT22;37795;53.236;5.704;2023-03-23T07:48:19;10.10;80.50
51719;DHT22;37795;53.236;5.704;2023-03-23T07:50:45;10.10;80.10
51719;DHT22;37795;53.236;5.704;2023-03-23T07:53:12;9.90;79.70
51719;DHT22;37795;53.236;5.704;2023-03-23T07:55:38;9.90;80.10
51719;DHT22;37795;53.236;5.704;2023-03-23T07:58:04;9.90;80.00
51719;DHT22;37795;53.236;5.704;2023-03-23T08:00:30;10.10;80.20
51719;DHT22;37795;53.236;5.704;2023-03-23T08:02:57;10.20;79.30
51719;DHT22;37795;53.236;5.704;2023-03-23T08:05:23;10.20;79.30
51719;DHT22;37795;53.236;5.704;2023-03-23T08:07:52;10.20;79.30
51719;DHT22;37795;53.236;5.704;2023-03-23T08:10:20;10.20;78.90
51719;DHT22;37795;53.236;5.704;2023-03-23T08:12:54;10.20;78.80
51719;DHT22;37795;53.236;5.704;2023-03-23T08:15:21;10.20;78.50
51719;DHT22;37795;53.236;5.704;2023-03-23T08:17:47;10.10;78.70
51719;DHT22;37795;53.236;5.704;2023-03-23T08:20:13;10.10;79.40
51719;DHT22;37795;53.236;5.704;2023-03-23T08:22:43;10.30;78.20
51719;DHT22;37795;53.236;5.704;2023-03-23T08:25:12;10.40;77.90
51719;DHT22;37795;53.236;5.704;2023-03-23T08:27:39;10.50;77.70
51719;DHT22;37795;53.236;5.704;2023-03-23T08:30:11;10.60;76.90
51719;DHT22;37795;53.236;5.704;2023-03-23T08:32:38;10.60;76.80
51719;DHT22;37795;53.236;5.704;2023-03-23T08:35:04;10.70;75.60
51719;DHT22;37795;53.236;5.704;2023-03-23T08:37:30;10.80;76.50
51719;DHT22;37795;53.236;5.704;2023-03-23T08:39:56;10.90;75.80
51719;DHT22;37795;53.236;5.704;2023-03-23T08:42:25;10.90;75.50
51719;DHT22;37795;53.236;5.704;2023-03-23T08:44:51;11.00;75.10
51719;DHT22;37795;53.236;5.704;2023-03-23T08:47:18;11.10;74.70
51719;DHT22;37795;53.236;5.704;2023-03-23T08:49:44;10.90;74.20
51719;DHT22;37795;53.236;5.704;2023-03-23T08:52:11;11.10;75.10
51719;DHT22;37795;53.236;5.704;2023-03-23T08:54:36;11.10;74.20
51719;DHT22;37795;53.236;5.704;2023-03-23T08:57:03;11.10;74.90
51719;DHT22;37795;53.236;5.704;2023-03-23T08:59:29;11.10;74.00
51719;DHT22;37795;53.236;5.704;2023-03-23T09:01:56;11.30;75.30
51719;DHT22;37795;53.236;5.704;2023-03-23T09:04:21;11.20;74.10
51719;DHT22;37795;53.236;5.704;2023-03-23T09:06:47;11.30;75.00
51719;DHT22;37795;53.236;5.704;2023-03-23T09:09:13;11.40;74.20
51719;DHT22;37795;53.236;5.704;2023-03-23T09:11:39;11.50;75.10
51719;DHT22;37795;53.236;5.704;2023-03-23T09:14:06;11.40;74.20
51719;DHT22;37795;53.236;5.704;2023-03-23T09:16:33;11.30;75.00
51719;DHT22;37795;53.236;5.704;2023-03-23T09:18:59;11.40;74.00
51719;DHT22;37795;53.236;5.704;2023-03-23T09:21:26;11.50;74.50
51719;DHT22;37795;53.236;5.704;2023-03-23T09:23:52;11.50;73.90
51719;DHT22;37795;53.236;5.704;2023-03-23T09:26:19;11.50;73.40
51719;DHT22;37795;53.236;5.704;2023-03-23T09:28:45;11.80;73.00
51719;DHT22;37795;53.236;5.704;2023-03-23T09:31:12;11.50;73.00
51719;DHT22;37795;53.236;5.704;2023-03-23T09:33:37;11.60;73.50
51719;DHT22;37795;53.236;5.704;2023-03-23T09:36:03;11.40;73.60
51719;DHT22;37795;53.236;5.704;2023-03-23T09:38:30;11.40;73.10
51719;DHT22;37795;53.236;5.704;2023-03-23T09:49:15;11.20;71.50
51719;DHT22;37795;53.236;5.704;2023-03-23T09:51:57;11.60;72.50
51719;DHT22;37795;53.236;5.704;2023-03-23T09:54:33;11.80;70.80
51719;DHT22;37795;53.236;5.704;2023-03-23T09:57:01;11.60;71.40
51719;DHT22;37795;53.236;5.704;2023-03-23T10:02:31;11.60;70.70
51719;DHT22;37795;53.236;5.704;2023-03-23T10:05:04;11.70;70.60
51719;DHT22;37795;53.236;5.704;2023-03-23T10:07:33;11.70;69.00
51719;DHT22;37795;53.236;5.704;2023-03-23T10:10:00;11.50;71.00
51719;DHT22;37795;53.236;5.704;2023-03-23T10:15:27;11.80;71.50
51719;DHT22;37795;53.236;5.704;2023-03-23T10:20:52;12.20;68.30
51719;DHT22;37795;53.236;5.704;2023-03-23T10:29:10;12.50;69.80
51719;DHT22;37795;53.236;5.704;2023-03-23T10:31:40;12.70;70.60
51719;DHT22;37795;53.236;5.704;2023-03-23T10:34:25;12.40;69.30
51719;DHT22;37795;53.236;5.704;2023-03-23T10:37:03;12.40;68.30
51719;DHT22;37795;53.236;5.704;2023-03-23T10:39:37;12.20;68.60
51719;DHT22;37795;53.236;5.704;2023-03-23T10:42:04;12.20;69.00
51719;DHT22;37795;53.236;5.704;2023-03-23T10:44:33;12.90;68.60
51719;DHT22;37795;53.236;5.704;2023-03-23T10:47:05;12.30;69.60
51719;DHT22;37795;53.236;5.704;2023-03-23T10:57:23;12.40;70.40
51719;DHT22;37795;53.236;5.704;2023-03-23T10:59:50;11.90;69.70
51719;DHT22;37795;53.236;5.704;2023-03-23T11:02:20;11.90;70.50
51719;DHT22;37795;53.236;5.704;2023-03-23T11:05:03;12.10;70.10
51719;DHT22;37795;53.236;5.704;2023-03-23T11:07:33;12.40;68.80
51719;DHT22;37795;53.236;5.704;2023-03-23T11:10:25;12.70;69.70
51719;DHT22;37795;53.236;5.704;2023-03-23T11:12:51;12.60;67.40
51719;DHT22;37795;53.236;5.704;2023-03-23T11:15:26;12.90;67.10
51719;DHT22;37795;53.236;5.704;2023-03-23T11:17:57;13.10;68.60
51719;DHT22;37795;53.236;5.704;2023-03-23T11:20:25;13.00;64.80
51719;DHT22;37795;53.236;5.704;2023-03-23T11:22:52;13.60;66.10
51719;DHT22;37795;53.236;5.704;2023-03-23T11:25:18;13.40;66.00
51719;DHT22;37795;53.236;5.704;2023-03-23T11:27:44;13.30;66.30
51719;DHT22;37795;53.236;5.704;2023-03-23T11:30:20;13.20;64.10
51719;DHT22;37795;53.236;5.704;2023-03-23T11:32:47;13.10;65.00
51719;DHT22;37795;53.236;5.704;2023-03-23T11:35:31;12.90;65.50
51719;DHT22;37795;53.236;5.704;2023-03-23T11:37:58;12.90;65.40
51719;DHT22;37795;53.236;5.704;2023-03-23T11:40:30;13.20;65.70
51719;DHT22;37795;53.236;5.704;2023-03-23T11:43:18;13.50;63.30
51719;DHT22;37795;53.236;5.704;2023-03-23T11:46:22;13.50;65.80
51719;DHT22;37795;53.236;5.704;2023-03-23T11:49:00;13.50;63.40
51719;DHT22;37795;53.236;5.704;2023-03-23T11:56:38;13.70;62.40
51719;DHT22;37795;53.236;5.704;2023-03-23T11:59:12;13.90;65.00
51719;DHT22;37795;53.236;5.704;2023-03-23T12:10:35;13.40;64.70
51719;DHT22;37795;53.236;5.704;2023-03-23T12:18:52;13.40;66.20
51719;DHT22;37795;53.236;5.704;2023-03-23T12:21:52;13.20;65.90
51719;DHT22;37795;53.236;5.704;2023-03-23T12:29:50;13.70;65.40
51719;DHT22;37795;53.236;5.704;2023-03-23T12:32:34;14.00;65.60
51719;DHT22;37795;53.236;5.704;2023-03-23T12:40:57;13.70;64.30
51719;DHT22;37795;53.236;5.704;2023-03-23T12:46:14;13.80;65.70
51719;DHT22;37795;53.236;5.704;2023-03-23T12:51:37;13.80;64.80
51719;DHT22;37795;53.236;5.704;2023-03-23T12:54:12;13.90;64.40
51719;DHT22;37795;53.236;5.704;2023-03-23T12:59:23;13.80;65.30
51719;DHT22;37795;53.236;5.704;2023-03-23T13:01:57;13.70;64.50
51719;DHT22;37795;53.236;5.704;2023-03-23T13:04:32;13.60;65.70
51719;DHT22;37795;53.236;5.704;2023-03-23T13:07:06;13.90;67.10
51719;DHT22;37795;53.236;5.704;2023-03-23T13:12:13;14.20;64.30
51719;DHT22;37795;53.236;5.704;2023-03-23T13:20:38;13.50;65.90
51719;DHT22;37795;53.236;5.704;2023-03-23T13:23:20;13.90;67.30
51719;DHT22;37795;53.236;5.704;2023-03-23T13:25:50;14.00;66.20
51719;DHT22;37795;53.236;5.704;2023-03-23T13:28:26;14.10;65.50
51719;DHT22;37795;53.236;5.704;2023-03-23T13:31:20;13.90;65.50
51719;DHT22;37795;53.236;5.704;2023-03-23T13:33:52;14.00;65.30
51719;DHT22;37795;53.236;5.704;2023-03-23T13:39:28;14.20;65.00
51719;DHT22;37795;53.236;5.704;2023-03-23T13:50:00;14.80;64.20
51719;DHT22;37795;53.236;5.704;2023-03-23T14:05:32;14.10;64.80
51719;DHT22;37795;53.236;5.704;2023-03-23T14:10:43;14.20;63.70
51719;DHT22;37795;53.236;5.704;2023-03-23T14:13:16;14.00;65.30
51719;DHT22;37795;53.236;5.704;2023-03-23T14:15:53;14.30;64.50
51719;DHT22;37795;53.236;5.704;2023-03-23T14:18:21;14.30;63.60
51719;DHT22;37795;53.236;5.704;2023-03-23T14:20:49;14.20;63.80
51719;DHT22;37795;53.236;5.704;2023-03-23T14:23:19;14.20;64.20
51719;DHT22;37795;53.236;5.704;2023-03-23T14:25:58;14.30;64.70
51719;DHT22;37795;53.236;5.704;2023-03-23T14:28:31;14.40;63.30
51719;DHT22;37795;53.236;5.704;2023-03-23T14:30:58;14.40;63.50
51719;DHT22;37795;53.236;5.704;2023-03-23T14:33:25;14.50;63.80
51719;DHT22;37795;53.236;5.704;2023-03-23T14:35:52;14.30;62.40
51719;DHT22;37795;53.236;5.704;2023-03-23T14:38:23;14.50;63.00
51719;DHT22;37795;53.236;5.704;2023-03-23T14:40:52;14.40;62.70
51719;DHT22;37795;53.236;5.704;2023-03-23T14:43:20;14.50;62.90
51719;DHT22;37795;53.236;5.704;2023-03-23T14:45:52;14.60;61.10
51719;DHT22;37795;53.236;5.704;2023-03-23T14:48:20;14.80;61.70
51719;DHT22;37795;53.236;5.704;2023-03-23T14:50:59;14.70;62.30
51719;DHT22;37795;53.236;5.704;2023-03-23T14:53:35;14.60;62.50
51719;DHT22;37795;53.236;5.704;2023-03-23T14:56:10;14.80;61.00
51719;DHT22;37795;53.236;5.704;2023-03-23T14:58:36;14.60;62.70
51719;DHT22;37795;53.236;5.704;2023-03-23T15:01:10;14.50;61.40
51719;DHT22;37795;53.236;5.704;2023-03-23T15:03:43;14.60;60.70
51719;DHT22;37795;53.236;5.704;2023-03-23T15:06:16;15.00;61.70
51719;DHT22;37795;53.236;5.704;2023-03-23T15:08:44;14.60;60.50
51719;DHT22;37795;53.236;5.704;2023-03-23T15:13:47;14.30;60.70
51719;DHT22;37795;53.236;5.704;2023-03-23T15:16:22;14.30;60.10
51719;DHT22;37795;53.236;5.704;2023-03-23T15:19:11;14.20;60.50
51719;DHT22;37795;53.236;5.704;2023-03-23T15:21:53;14.00;60.50
51719;DHT22;37795;53.236;5.704;2023-03-23T15:24:31;14.30;61.30
51719;DHT22;37795;53.236;5.704;2023-03-23T15:27:28;14.30;61.60
51719;DHT22;37795;53.236;5.704;2023-03-23T15:29:55;14.50;61.40
51719;DHT22;37795;53.236;5.704;2023-03-23T15:32:37;14.60;61.50
51719;DHT22;37795;53.236;5.704;2023-03-23T15:35:10;14.20;61.90
51719;DHT22;37795;53.236;5.704;2023-03-23T15:37:44;14.00;63.20
51719;DHT22;37795;53.236;5.704;2023-03-23T15:40:18;14.10;62.60
51719;DHT22;37795;53.236;5.704;2023-03-23T15:42:44;13.80;63.60
51719;DHT22;37795;53.236;5.704;2023-03-23T15:47:57;14.00;65.20
51719;DHT22;37795;53.236;5.704;2023-03-23T15:52:51;14.00;64.10
51719;DHT22;37795;53.236;5.704;2023-03-23T15:57:53;13.70;63.80
51719;DHT22;37795;53.236;5.704;2023-03-23T16:00:20;13.60;64.20
51719;DHT22;37795;53.236;5.704;2023-03-23T16:02:49;13.50;64.40
51719;DHT22;37795;53.236;5.704;2023-03-23T16:05:16;13.60;64.30
51719;DHT22;37795;53.236;5.704;2023-03-23T16:07:42;13.30;65.60
51719;DHT22;37795;53.236;5.704;2023-03-23T16:10:18;13.10;65.70
51719;DHT22;37795;53.236;5.704;2023-03-23T16:12:44;13.00;67.00
51719;DHT22;37795;53.236;5.704;2023-03-23T16:15:10;12.90;67.40
51719;DHT22;37795;53.236;5.704;2023-03-23T16:17:36;12.90;67.30
51719;DHT22;37795;53.236;5.704;2023-03-23T16:20:16;12.90;66.90
51719;DHT22;37795;53.236;5.704;2023-03-23T16:22:42;12.80;67.30
51719;DHT22;37795;53.236;5.704;2023-03-23T16:25:09;12.90;68.00
51719;DHT22;37795;53.236;5.704;2023-03-23T16:27:36;12.80;68.20
51719;DHT22;37795;53.236;5.704;2023-03-23T16:30:16;12.90;68.60
51719;DHT22;37795;53.236;5.704;2023-03-23T16:32:42;12.80;68.30
51719;DHT22;37795;53.236;5.704;2023-03-23T16:35:08;12.70;68.10
51719;DHT22;37795;53.236;5.704;2023-03-23T16:37:35;12.80;68.20
51719;DHT22;37795;53.236;5.704;2023-03-23T16:40:02;12.50;68.40
51719;DHT22;37795;53.236;5.704;2023-03-23T16:42:28;12.40;69.00
51719;DHT22;37795;53.236;5.704;2023-03-23T16:44:54;12.50;68.80
51719;DHT22;37795;53.236;5.704;2023-03-23T16:47:20;12.40;69.60
51719;DHT22;37795;53.236;5.704;2023-03-23T16:49:51;12.40;69.30
51719;DHT22;37795;53.236;5.704;2023-03-23T16:52:16;12.30;69.50
51719;DHT22;37795;53.236;5.704;2023-03-23T16:54:42;12.20;69.70
51719;DHT22;37795;53.236;5.704;2023-03-23T16:57:08;12.30;70.00
51719;DHT22;37795;53.236;5.704;2023-03-23T16:59:34;12.30;69.80
51719;DHT22;37795;53.236;5.704;2023-03-23T17:02:00;12.30;69.50
51719;DHT22;37795;53.236;5.704;2023-03-23T17:04:32;12.30;70.10
51719;DHT22;37795;53.236;5.704;2023-03-23T17:06:58;12.20;70.40
51719;DHT22;37795;53.236;5.704;2023-03-23T17:09:28;12.20;70.70
51719;DHT22;37795;53.236;5.704;2023-03-23T17:11:53;12.10;70.70
51719;DHT22;37795;53.236;5.704;2023-03-23T17:14:20;12.20;70.60
51719;DHT22;37795;53.236;5.704;2023-03-23T17:16:46;12.00;71.10
51719;DHT22;37795;53.236;5.704;2023-03-23T17:19:12;12.00;70.80
51719;DHT22;37795;53.236;5.704;2023-03-23T17:21:39;12.00;71.00
51719;DHT22;37795;53.236;5.704;2023-03-23T17:24:05;12.10;70.80
51719;DHT22;37795;53.236;5.704;2023-03-23T17:26:31;12.00;70.70
51719;DHT22;37795;53.236;5.704;2023-03-23T17:28:57;12.00;70.60
51719;DHT22;37795;53.236;5.704;2023-03-23T17:31:23;11.90;70.90
51719;DHT22;37795;53.236;5.704;2023-03-23T17:33:49;11.90;71.10
51719;DHT22;37795;53.236;5.704;2023-03-23T17:36:17;11.80;71.30
51719;DHT22;37795;53.236;5.704;2023-03-23T17:38:43;11.90;71.50
51719;DHT22;37795;53.236;5.704;2023-03-23T17:41:09;11.90;71.30
51719;DHT22;37795;53.236;5.704;2023-03-23T17:43:36;11.70;71.70
51719;DHT22;37795;53.236;5.704;2023-03-23T17:46:05;11.60;71.90
51719;DHT22;37795;53.236;5.704;2023-03-23T17:48:31;11.70;72.10
51719;DHT22;37795;53.236;5.704;2023-03-23T17:50:57;11.60;72.30
51719;DHT22;37795;53.236;5.704;2023-03-23T17:53:25;11.50;72.50
51719;DHT22;37795;53.236;5.704;2023-03-23T17:55:51;11.50;72.70
51719;DHT22;37795;53.236;5.704;2023-03-23T17:58:18;11.40;73.60
51719;DHT22;37795;53.236;5.704;2023-03-23T18:00:43;11.20;73.80
51719;DHT22;37795;53.236;5.704;2023-03-23T18:03:09;11.20;73.80
51719;DHT22;37795;53.236;5.704;2023-03-23T18:05:35;11.30;74.10
51719;DHT22;37795;53.236;5.704;2023-03-23T18:08:05;11.20;73.90
51719;DHT22;37795;53.236;5.704;2023-03-23T18:10:30;11.20;74.60
51719;DHT22;37795;53.236;5.704;2023-03-23T18:12:59;11.20;74.30
51719;DHT22;37795;53.236;5.704;2023-03-23T18:15:25;11.10;74.10